Terminal Aerodrome Forecast
Issued by NWS

Home | Current Version | Previous Version | Text Only | Print | Product List | Glossary On
Versions: 1 2 3 4 5 6 7 8 9 10 11 12 13 14 15
839
FTUS45 KABQ 291120
TAFTCC
TAF
KTCC 291120Z 2912/3012 14006KT P6SM FEW025
      TEMPO 2912/2916 BKN025
     FM291600 16007KT P6SM FEW040
     FM291900 19012G22KT P6SM FEW090
     FM292300 20016G26KT P6SM VCTS SCT090CB SCT150
     FM300100 19011KT P6SM SCT090 SCT150
     FM301100 14007KT P6SM BKN015=

USA.gov is the U.S. government's official web portal to all federal, state and local government web resources and services.